Aérodrome :
LOGIN :

S'inscrire | Disclaimer

   EN    FR    IT 

 










Légende :    VFR   VFR Marginal   IFR   IFR Intensif   IFR Très Intensif
Visi : 
Plafond : 
>= 8 km
>= 3000ft
5 à 8 km
1000 à 3000 ft
1500m à 5 km
500 à 1000 ft
800 à 1500m
200 à 500 ft
< 800m
< 200 ft
Symboles :   Orages  Brouillard  Fortes neiges  Fortes précipitations  Vent > 20 kt
SIGMETs :   Divers  Orages  Givrage  Turbulence  Onde Orograph.  Cendres Volcan.






- Altitude de l'aérodrome : 125 ft
- Code IATA : MGL


EDLN - Mönchengladbach

DERNIER METAR :
  • 301050Z 28011KT 240V310 9999 FEW026 BKN030 07/03 Q1018

METARs EXPIRÉS :
  • 301020Z 27010KT 230V310 9999 BKN026 07/03 Q1018
  • 300950Z 27010KT 210V310 9999 SCT022 07/04 Q1017
  • 300920Z 27009KT 220V360 9999 FEW019 07/04 Q1017
  • 300850Z 27008KT 230V300 9999 FEW015 07/05 Q1017
  • 300820Z 26008KT 220V310 9999 FEW013 07/05 Q1016

TAF TAF EDLN
Valide du 30 à 09h jusqu'au 30 à 18h UTC


300800Z 3009/3018 28012KT 9999 SCT025
TEMPO 3011/3016 29015G25KT



MET'MAP, la Météo Aéronautique d'un coup d'oeil ! - Copyright ORBIFLY Décembre 2007 - Disclaimer

ORBIFLY MET'MAP TEAM :

Programmation & Développement : Alexandra Zaïnal
Sur une idée originale de : Baudouin d'Aumeries
Soutien technique & logistique : Manuel Goepfert
Assistance : Marc-Olivier Méhu




SOURCES & CREDITS :

   NOAA